createdAt,value
2019-03-23T00:02:12.693Z,32.83
2019-03-23T00:08:17.401Z,35.07
2019-03-23T00:14:22.044Z,34.17
2019-03-23T00:20:26.602Z,33.73
2019-03-23T00:26:31.223Z,36.47
2019-03-23T00:32:35.946Z,34.67
2019-03-23T00:38:40.504Z,35.90
2019-03-23T00:44:45.080Z,35.87
2019-03-23T00:50:49.628Z,32.90
2019-03-23T00:56:54.185Z,33.63
2019-03-23T01:02:58.751Z,33.27
2019-03-23T01:09:06.660Z,33.17
2019-03-23T01:15:13.926Z,34.30
2019-03-23T01:21:18.534Z,34.20
2019-03-23T01:27:23.089Z,34.40
2019-03-23T01:33:27.649Z,34.50
2019-03-23T01:39:32.201Z,38.00
2019-03-23T01:45:36.827Z,35.90
2019-03-23T01:51:41.453Z,34.60
2019-03-23T01:57:46.009Z,35.70
2019-03-23T02:03:50.646Z,36.50
2019-03-23T02:09:55.200Z,35.10
2019-03-23T02:15:59.827Z,32.83
2019-03-23T02:22:04.453Z,32.97
2019-03-23T02:28:09.021Z,34.37
2019-03-23T02:34:13.577Z,38.60
2019-03-23T02:40:18.149Z,32.50
2019-03-23T02:46:22.709Z,34.30
2019-03-23T02:52:27.268Z,31.40
2019-03-23T02:58:31.844Z,31.00
2019-03-23T03:04:36.407Z,30.00
2019-03-23T03:10:42.196Z,30.50
2019-03-23T03:16:46.746Z,25.27
2019-03-23T03:22:51.309Z,26.70
2019-03-23T03:28:55.849Z,28.67
2019-03-23T03:35:00.743Z,25.23
2019-03-23T03:41:05.531Z,23.57
2019-03-23T03:47:10.092Z,24.63
2019-03-23T03:53:14.640Z,24.03
2019-03-23T03:59:19.208Z,27.53
2019-03-23T04:05:23.788Z,28.20
2019-03-23T04:11:28.320Z,24.43
2019-03-23T04:17:32.883Z,22.17
2019-03-23T04:23:37.434Z,27.50
2019-03-23T04:29:41.981Z,27.90
2019-03-23T04:35:46.547Z,27.20
2019-03-23T04:41:51.169Z,24.10
2019-03-23T04:47:55.719Z,25.90
2019-03-23T04:54:00.273Z,27.27
2019-03-23T05:00:09.044Z,26.30
2019-03-23T05:06:13.610Z,29.70
2019-03-23T05:12:18.161Z,28.17
2019-03-23T05:18:22.716Z,27.27
2019-03-23T05:24:27.269Z,23.40
2019-03-23T05:30:31.826Z,24.30
2019-03-23T05:36:36.488Z,26.73
2019-03-23T05:42:41.045Z,26.20
2019-03-23T05:48:45.607Z,25.90
2019-03-23T05:54:50.168Z,28.20
2019-03-23T06:00:54.724Z,25.77
2019-03-23T06:06:59.283Z,27.00
2019-03-23T06:13:03.909Z,25.50
2019-03-23T06:19:08.465Z,29.23
2019-03-23T06:25:13.044Z,31.63
2019-03-23T06:31:17.592Z,28.90
2019-03-23T06:37:22.142Z,31.60
2019-03-23T06:43:26.696Z,34.90
2019-03-23T06:49:31.253Z,25.90
2019-03-23T06:55:36.082Z,29.17
2019-03-23T07:01:40.637Z,32.87
2019-03-23T07:07:45.189Z,31.13
2019-03-23T07:13:49.757Z,26.37
2019-03-23T07:19:54.323Z,24.13
2019-03-23T07:25:58.895Z,23.03
2019-03-23T07:32:05.947Z,28.07
2019-03-23T07:38:09.757Z,29.27
2019-03-23T07:44:14.323Z,29.30
2019-03-23T07:50:18.963Z,26.33
2019-03-23T07:56:23.534Z,27.90
2019-03-23T08:02:28.105Z,25.40
2019-03-23T08:08:32.680Z,25.97
2019-03-23T08:14:37.322Z,26.73
2019-03-23T08:20:41.962Z,25.87
2019-03-23T08:26:46.545Z,21.80
2019-03-23T08:32:51.277Z,23.80
2019-03-23T08:38:55.915Z,23.63
2019-03-23T08:45:00.501Z,24.60
2019-03-23T08:51:05.217Z,32.83
2019-03-23T08:57:09.778Z,27.23
2019-03-23T09:03:14.429Z,26.33
2019-03-23T09:09:18.994Z,27.27
2019-03-23T09:15:23.645Z,26.20
2019-03-23T09:21:28.223Z,29.03
2019-03-23T09:27:32.866Z,29.70
2019-03-23T09:33:37.457Z,34.00
2019-03-23T09:39:42.025Z,32.50
2019-03-23T09:45:46.606Z,33.13
2019-03-23T09:51:51.171Z,36.33
2019-03-23T09:57:55.751Z,33.70
2019-03-23T10:04:00.335Z,35.10
2019-03-23T10:10:06.412Z,36.90
2019-03-23T10:16:11.003Z,36.60
2019-03-23T10:22:15.593Z,40.33
2019-03-23T10:28:20.158Z,42.60
2019-03-23T10:34:24.722Z,42.47
2019-03-23T10:40:32.767Z,37.10
2019-03-23T10:46:35.586Z,37.17
2019-03-23T10:52:40.255Z,35.80
2019-03-23T10:58:44.835Z,35.50
2019-03-23T11:04:49.564Z,38.63
2019-03-23T11:10:54.135Z,40.40
2019-03-23T11:16:58.705Z,37.77
2019-03-23T11:23:03.265Z,39.20
2019-03-23T11:29:08.526Z,37.60
2019-03-23T11:35:13.669Z,37.87
2019-03-23T11:41:18.316Z,38.20
2019-03-23T11:47:22.931Z,36.67
2019-03-23T11:53:27.528Z,39.00
2019-03-23T11:59:32.108Z,39.60
2019-03-23T12:05:36.677Z,37.37
2019-03-23T12:11:41.258Z,38.73
2019-03-23T12:17:45.996Z,37.60
2019-03-23T12:23:50.561Z,40.80
2019-03-23T12:29:55.153Z,40.97
2019-03-23T12:35:59.825Z,38.47
2019-03-23T12:42:04.404Z,41.47
2019-03-23T12:48:08.979Z,34.97
2019-03-23T12:54:13.549Z,38.70
2019-03-23T13:00:18.545Z,33.80
2019-03-23T13:06:23.136Z,37.73
2019-03-23T13:12:27.729Z,33.43
2019-03-23T13:18:32.446Z,33.07
2019-03-23T13:24:37.025Z,35.93
2019-03-23T13:30:41.603Z,37.87
2019-03-23T13:36:46.189Z,30.53
2019-03-23T13:42:50.758Z,27.70
2019-03-23T13:48:55.402Z,29.47
2019-03-23T13:55:00.167Z,27.40
2019-03-23T14:01:04.879Z,26.77
2019-03-23T14:07:10.355Z,27.80
2019-03-23T14:13:14.931Z,28.20
2019-03-23T14:19:19.652Z,28.40
2019-03-23T14:25:24.218Z,30.37
2019-03-23T14:31:28.800Z,30.80
2019-03-23T14:37:33.367Z,27.30
2019-03-23T14:43:37.930Z,24.40
2019-03-23T14:49:42.523Z,30.50
2019-03-23T14:55:47.319Z,28.13
2019-03-23T15:01:51.976Z,24.03
2019-03-23T15:07:56.629Z,22.13
2019-03-23T15:14:01.195Z,23.33
2019-03-23T15:20:07.830Z,28.20
2019-03-23T15:26:12.519Z,26.90
2019-03-23T15:32:17.096Z,23.20
2019-03-23T15:38:21.670Z,24.40
2019-03-23T15:44:26.248Z,22.70
2019-03-23T15:50:30.829Z,21.63
2019-03-23T15:56:35.586Z,20.70
2019-03-23T16:02:42.904Z,22.37
2019-03-23T16:08:47.687Z,23.17
2019-03-23T16:14:52.271Z,23.60
2019-03-23T16:20:56.893Z,23.70
2019-03-23T16:27:01.569Z,25.00
2019-03-23T16:33:06.325Z,22.80
2019-03-23T16:39:10.965Z,34.10
2019-03-23T16:45:16.356Z,26.63
2019-03-23T16:51:20.952Z,23.10
2019-03-23T16:57:25.735Z,25.80
2019-03-23T17:03:30.316Z,26.10
2019-03-23T17:09:34.876Z,29.23
2019-03-23T17:15:39.435Z,30.00
2019-03-23T17:21:44.166Z,28.50
2019-03-23T17:27:48.745Z,29.07
2019-03-23T17:33:53.400Z,27.90
2019-03-23T17:39:57.953Z,29.80
2019-03-23T17:46:02.673Z,36.67
2019-03-23T17:52:07.352Z,28.53
2019-03-23T17:58:11.940Z,31.87
2019-03-23T18:04:16.580Z,28.33
2019-03-23T18:10:21.236Z,30.80
2019-03-23T18:16:25.952Z,29.20
2019-03-23T18:22:30.686Z,30.63
2019-03-23T18:28:35.315Z,39.07
2019-03-23T18:34:39.896Z,67.90
2019-03-23T18:40:44.650Z,43.30
2019-03-23T18:46:49.457Z,31.00
2019-03-23T18:52:54.016Z,30.93
2019-03-23T18:58:58.587Z,38.47
2019-03-23T19:05:03.254Z,32.93
2019-03-23T19:11:07.827Z,31.13
2019-03-23T19:17:12.408Z,33.13
2019-03-23T19:23:16.982Z,29.70
2019-03-23T19:29:21.567Z,34.30
2019-03-23T19:35:26.308Z,33.70
2019-03-23T19:41:30.994Z,34.90
2019-03-23T19:47:35.652Z,37.80
2019-03-23T19:53:40.409Z,36.33
2019-03-23T19:59:44.992Z,38.37
2019-03-23T20:05:49.640Z,38.67
2019-03-23T20:11:54.225Z,38.20
2019-03-23T20:17:58.819Z,37.90
2019-03-23T20:24:03.397Z,38.37
2019-03-23T20:30:11.487Z,38.57
2019-03-23T20:36:16.102Z,36.00
2019-03-23T20:42:20.760Z,34.30
2019-03-23T20:48:25.689Z,33.33
2019-03-23T20:54:30.403Z,24.93
2019-03-23T21:00:35.010Z,24.13
2019-03-23T21:06:39.591Z,23.87
2019-03-23T21:12:44.181Z,24.70
2019-03-23T21:18:48.761Z,25.80
2019-03-23T21:24:53.325Z,24.50
2019-03-23T21:30:57.897Z,23.33
2019-03-23T21:37:02.535Z,26.57
2019-03-23T21:43:07.103Z,23.40
2019-03-23T21:49:11.670Z,22.70
2019-03-23T21:55:16.478Z,22.40
2019-03-23T22:01:21.037Z,21.50
2019-03-23T22:07:25.598Z,23.87
2019-03-23T22:13:30.173Z,22.87
2019-03-23T22:19:34.810Z,22.30
2019-03-23T22:25:39.434Z,21.33
2019-03-23T22:31:44.006Z,22.30
2019-03-23T22:37:48.570Z,19.97
2019-03-23T22:43:53.112Z,19.60
2019-03-23T22:49:57.682Z,16.40
2019-03-23T22:56:02.317Z,20.73
2019-03-23T23:02:06.887Z,22.77
2019-03-23T23:08:11.470Z,14.93
2019-03-23T23:14:16.011Z,13.63
2019-03-23T23:20:20.596Z,16.13
2019-03-23T23:26:25.249Z,15.73
2019-03-23T23:32:29.796Z,14.10
2019-03-23T23:38:34.365Z,14.27
2019-03-23T23:44:38.918Z,14.90
2019-03-23T23:50:43.470Z,15.37
2019-03-23T23:56:48.153Z,15.33
